sensor_id;sensor_type;location;lat;lon;timestamp;P1;durP1;ratioP1;P2;durP2;ratioP2
52642;SDS011;38531;53.296;6.614;2023-12-28T00:00:34;4.70;;;2.47;;
52642;SDS011;38531;53.296;6.614;2023-12-28T00:02:59;6.85;;;3.08;;
52642;SDS011;38531;53.296;6.614;2023-12-28T00:05:25;5.32;;;2.60;;
52642;SDS011;38531;53.296;6.614;2023-12-28T00:07:51;4.63;;;3.08;;
52642;SDS011;38531;53.296;6.614;2023-12-28T00:10:23;4.63;;;2.30;;
52642;SDS011;38531;53.296;6.614;2023-12-28T00:12:50;6.03;;;2.78;;
52642;SDS011;38531;53.296;6.614;2023-12-28T00:15:15;8.35;;;2.95;;
52642;SDS011;38531;53.296;6.614;2023-12-28T00:17:41;7.15;;;2.85;;
52642;SDS011;38531;53.296;6.614;2023-12-28T00:20:07;4.60;;;2.50;;
52642;SDS011;38531;53.296;6.614;2023-12-28T00:22:33;7.07;;;2.42;;
52642;SDS011;38531;53.296;6.614;2023-12-28T00:24:59;5.80;;;2.45;;
52642;SDS011;38531;53.296;6.614;2023-12-28T00:27:24;7.50;;;2.83;;
52642;SDS011;38531;53.296;6.614;2023-12-28T00:29:50;6.97;;;2.50;;
52642;SDS011;38531;53.296;6.614;2023-12-28T00:32:16;3.95;;;2.67;;
52642;SDS011;38531;53.296;6.614;2023-12-28T00:34:41;7.50;;;2.30;;
52642;SDS011;38531;53.296;6.614;2023-12-28T00:37:07;7.88;;;2.28;;
52642;SDS011;38531;53.296;6.614;2023-12-28T00:39:33;4.72;;;2.42;;
52642;SDS011;38531;53.296;6.614;2023-12-28T00:42:00;4.75;;;2.28;;
52642;SDS011;38531;53.296;6.614;2023-12-28T00:44:26;5.60;;;2.70;;
52642;SDS011;38531;53.296;6.614;2023-12-28T00:46:51;7.40;;;2.50;;
52642;SDS011;38531;53.296;6.614;2023-12-28T00:49:17;6.40;;;2.45;;
52642;SDS011;38531;53.296;6.614;2023-12-28T00:51:43;5.88;;;2.25;;
52642;SDS011;38531;53.296;6.614;2023-12-28T00:54:08;6.90;;;2.28;;
52642;SDS011;38531;53.296;6.614;2023-12-28T00:56:34;4.85;;;2.45;;
52642;SDS011;38531;53.296;6.614;2023-12-28T00:59:00;10.25;;;2.80;;
52642;SDS011;38531;53.296;6.614;2023-12-28T01:01:27;6.15;;;2.78;;
52642;SDS011;38531;53.296;6.614;2023-12-28T01:03:55;6.82;;;2.88;;
52642;SDS011;38531;53.296;6.614;2023-12-28T01:06:21;7.60;;;2.47;;
52642;SDS011;38531;53.296;6.614;2023-12-28T01:08:47;6.68;;;2.80;;
52642;SDS011;38531;53.296;6.614;2023-12-28T01:11:13;8.52;;;2.80;;
52642;SDS011;38531;53.296;6.614;2023-12-28T01:13:39;10.15;;;2.58;;
52642;SDS011;38531;53.296;6.614;2023-12-28T01:16:05;10.07;;;2.35;;
52642;SDS011;38531;53.296;6.614;2023-12-28T01:18:30;5.53;;;2.17;;
52642;SDS011;38531;53.296;6.614;2023-12-28T01:20:56;10.15;;;2.33;;
52642;SDS011;38531;53.296;6.614;2023-12-28T01:23:22;14.38;;;2.80;;
52642;SDS011;38531;53.296;6.614;2023-12-28T01:25:47;10.85;;;2.72;;
52642;SDS011;38531;53.296;6.614;2023-12-28T01:28:13;7.40;;;2.08;;
52642;SDS011;38531;53.296;6.614;2023-12-28T01:30:39;7.85;;;2.47;;
52642;SDS011;38531;53.296;6.614;2023-12-28T01:33:05;10.68;;;1.90;;
52642;SDS011;38531;53.296;6.614;2023-12-28T01:35:30;11.20;;;2.05;;
52642;SDS011;38531;53.296;6.614;2023-12-28T01:37:56;9.85;;;2.15;;
52642;SDS011;38531;53.296;6.614;2023-12-28T01:40:22;13.80;;;2.50;;
52642;SDS011;38531;53.296;6.614;2023-12-28T01:42:48;10.52;;;2.67;;
52642;SDS011;38531;53.296;6.614;2023-12-28T01:45:14;14.77;;;2.75;;
52642;SDS011;38531;53.296;6.614;2023-12-28T01:47:39;10.35;;;2.15;;
52642;SDS011;38531;53.296;6.614;2023-12-28T01:50:06;16.23;;;3.10;;
52642;SDS011;38531;53.296;6.614;2023-12-28T01:52:32;12.55;;;2.88;;
52642;SDS011;38531;53.296;6.614;2023-12-28T01:54:58;12.23;;;2.47;;
52642;SDS011;38531;53.296;6.614;2023-12-28T01:57:24;12.25;;;2.83;;
52642;SDS011;38531;53.296;6.614;2023-12-28T01:59:50;14.02;;;2.83;;
52642;SDS011;38531;53.296;6.614;2023-12-28T02:02:17;11.23;;;2.22;;
52642;SDS011;38531;53.296;6.614;2023-12-28T02:04:43;12.98;;;2.65;;
52642;SDS011;38531;53.296;6.614;2023-12-28T02:07:10;9.68;;;2.20;;
52642;SDS011;38531;53.296;6.614;2023-12-28T02:09:36;14.82;;;2.67;;
52642;SDS011;38531;53.296;6.614;2023-12-28T02:12:02;14.90;;;2.47;;
52642;SDS011;38531;53.296;6.614;2023-12-28T02:14:28;7.93;;;2.45;;
52642;SDS011;38531;53.296;6.614;2023-12-28T02:16:57;9.25;;;2.55;;
52642;SDS011;38531;53.296;6.614;2023-12-28T02:19:54;10.27;;;2.05;;
52642;SDS011;38531;53.296;6.614;2023-12-28T02:22:23;12.52;;;2.88;;
52642;SDS011;38531;53.296;6.614;2023-12-28T02:25:06;15.27;;;2.83;;
52642;SDS011;38531;53.296;6.614;2023-12-28T02:27:39;13.52;;;3.05;;
52642;SDS011;38531;53.296;6.614;2023-12-28T02:30:06;13.35;;;2.55;;
52642;SDS011;38531;53.296;6.614;2023-12-28T02:32:42;9.95;;;2.20;;
52642;SDS011;38531;53.296;6.614;2023-12-28T02:35:25;19.60;;;2.83;;
52642;SDS011;38531;53.296;6.614;2023-12-28T02:37:58;14.93;;;2.53;;
52642;SDS011;38531;53.296;6.614;2023-12-28T02:40:27;13.20;;;2.75;;
52642;SDS011;38531;53.296;6.614;2023-12-28T02:42:56;9.98;;;2.17;;
52642;SDS011;38531;53.296;6.614;2023-12-28T02:45:21;10.70;;;2.65;;
52642;SDS011;38531;53.296;6.614;2023-12-28T02:47:47;22.70;;;2.83;;
52642;SDS011;38531;53.296;6.614;2023-12-28T02:50:13;12.10;;;3.03;;
52642;SDS011;38531;53.296;6.614;2023-12-28T02:52:38;12.50;;;2.45;;
52642;SDS011;38531;53.296;6.614;2023-12-28T02:55:04;11.98;;;2.47;;
52642;SDS011;38531;53.296;6.614;2023-12-28T02:57:30;11.52;;;2.85;;
52642;SDS011;38531;53.296;6.614;2023-12-28T02:59:56;23.38;;;2.88;;
52642;SDS011;38531;53.296;6.614;2023-12-28T03:02:26;11.05;;;2.35;;
52642;SDS011;38531;53.296;6.614;2023-12-28T03:04:52;13.57;;;2.30;;
52642;SDS011;38531;53.296;6.614;2023-12-28T03:07:17;10.93;;;2.78;;
52642;SDS011;38531;53.296;6.614;2023-12-28T03:09:43;13.88;;;2.75;;
52642;SDS011;38531;53.296;6.614;2023-12-28T03:12:09;10.90;;;2.60;;
52642;SDS011;38531;53.296;6.614;2023-12-28T03:14:34;8.15;;;1.83;;
52642;SDS011;38531;53.296;6.614;2023-12-28T03:17:00;9.05;;;2.25;;
52642;SDS011;38531;53.296;6.614;2023-12-28T03:19:26;11.00;;;2.20;;
52642;SDS011;38531;53.296;6.614;2023-12-28T03:21:51;11.45;;;2.58;;
52642;SDS011;38531;53.296;6.614;2023-12-28T03:24:17;13.45;;;1.85;;
52642;SDS011;38531;53.296;6.614;2023-12-28T03:26:42;10.23;;;2.20;;
52642;SDS011;38531;53.296;6.614;2023-12-28T03:29:08;15.80;;;3.03;;
52642;SDS011;38531;53.296;6.614;2023-12-28T03:31:38;18.40;;;3.67;;
52642;SDS011;38531;53.296;6.614;2023-12-28T03:34:07;11.48;;;2.15;;
52642;SDS011;38531;53.296;6.614;2023-12-28T03:36:32;13.65;;;3.08;;
52642;SDS011;38531;53.296;6.614;2023-12-28T03:38:58;13.75;;;2.13;;
52642;SDS011;38531;53.296;6.614;2023-12-28T03:41:24;14.63;;;2.10;;
52642;SDS011;38531;53.296;6.614;2023-12-28T03:43:49;10.85;;;1.95;;
52642;SDS011;38531;53.296;6.614;2023-12-28T03:46:15;7.97;;;2.22;;
52642;SDS011;38531;53.296;6.614;2023-12-28T03:48:41;14.68;;;2.35;;
52642;SDS011;38531;53.296;6.614;2023-12-28T03:51:07;10.45;;;1.85;;
52642;SDS011;38531;53.296;6.614;2023-12-28T03:53:32;9.65;;;1.88;;
52642;SDS011;38531;53.296;6.614;2023-12-28T03:55:58;8.57;;;2.00;;
52642;SDS011;38531;53.296;6.614;2023-12-28T03:58:24;7.97;;;2.13;;
52642;SDS011;38531;53.296;6.614;2023-12-28T04:00:50;12.15;;;2.05;;
52642;SDS011;38531;53.296;6.614;2023-12-28T04:03:15;8.77;;;1.80;;
52642;SDS011;38531;53.296;6.614;2023-12-28T04:05:42;9.18;;;1.90;;
52642;SDS011;38531;53.296;6.614;2023-12-28T04:08:09;9.57;;;2.45;;
52642;SDS011;38531;53.296;6.614;2023-12-28T04:10:35;16.67;;;2.10;;
52642;SDS011;38531;53.296;6.614;2023-12-28T04:13:02;10.95;;;1.67;;
52642;SDS011;38531;53.296;6.614;2023-12-28T04:15:28;11.98;;;2.30;;
52642;SDS011;38531;53.296;6.614;2023-12-28T04:17:55;9.43;;;1.90;;
52642;SDS011;38531;53.296;6.614;2023-12-28T04:20:20;10.70;;;1.98;;
52642;SDS011;38531;53.296;6.614;2023-12-28T04:22:47;12.85;;;2.15;;
52642;SDS011;38531;53.296;6.614;2023-12-28T04:25:13;11.35;;;2.13;;
52642;SDS011;38531;53.296;6.614;2023-12-28T04:27:41;13.52;;;2.75;;
52642;SDS011;38531;53.296;6.614;2023-12-28T04:30:07;7.40;;;1.80;;
52642;SDS011;38531;53.296;6.614;2023-12-28T04:32:33;16.45;;;2.03;;
52642;SDS011;38531;53.296;6.614;2023-12-28T04:34:59;10.95;;;1.65;;
52642;SDS011;38531;53.296;6.614;2023-12-28T04:37:24;12.57;;;2.10;;
52642;SDS011;38531;53.296;6.614;2023-12-28T04:39:53;15.38;;;2.20;;
52642;SDS011;38531;53.296;6.614;2023-12-28T04:42:19;14.45;;;2.10;;
52642;SDS011;38531;53.296;6.614;2023-12-28T04:44:44;12.63;;;2.55;;
52642;SDS011;38531;53.296;6.614;2023-12-28T04:47:10;10.40;;;2.38;;
52642;SDS011;38531;53.296;6.614;2023-12-28T04:49:36;12.60;;;1.88;;
52642;SDS011;38531;53.296;6.614;2023-12-28T04:52:01;9.77;;;1.80;;
52642;SDS011;38531;53.296;6.614;2023-12-28T04:54:27;15.00;;;1.77;;
52642;SDS011;38531;53.296;6.614;2023-12-28T04:56:53;9.20;;;1.48;;
52642;SDS011;38531;53.296;6.614;2023-12-28T04:59:19;13.38;;;2.03;;
52642;SDS011;38531;53.296;6.614;2023-12-28T05:01:45;18.42;;;2.58;;
52642;SDS011;38531;53.296;6.614;2023-12-28T05:04:11;12.25;;;2.13;;
52642;SDS011;38531;53.296;6.614;2023-12-28T05:06:37;10.02;;;2.03;;
52642;SDS011;38531;53.296;6.614;2023-12-28T05:09:03;13.63;;;2.08;;
52642;SDS011;38531;53.296;6.614;2023-12-28T05:11:29;16.40;;;2.58;;
52642;SDS011;38531;53.296;6.614;2023-12-28T05:13:55;15.85;;;2.03;;
52642;SDS011;38531;53.296;6.614;2023-12-28T05:16:21;13.32;;;2.10;;
52642;SDS011;38531;53.296;6.614;2023-12-28T05:18:47;16.25;;;2.08;;
52642;SDS011;38531;53.296;6.614;2023-12-28T05:21:13;13.85;;;2.08;;
52642;SDS011;38531;53.296;6.614;2023-12-28T05:23:39;13.30;;;1.67;;
52642;SDS011;38531;53.296;6.614;2023-12-28T05:26:05;13.27;;;2.00;;
52642;SDS011;38531;53.296;6.614;2023-12-28T05:28:31;16.08;;;2.40;;
52642;SDS011;38531;53.296;6.614;2023-12-28T05:30:57;8.25;;;2.38;;
52642;SDS011;38531;53.296;6.614;2023-12-28T05:33:24;19.15;;;2.45;;
52642;SDS011;38531;53.296;6.614;2023-12-28T05:35:50;12.98;;;2.30;;
52642;SDS011;38531;53.296;6.614;2023-12-28T05:38:16;12.73;;;2.25;;
52642;SDS011;38531;53.296;6.614;2023-12-28T05:40:42;18.50;;;2.80;;
52642;SDS011;38531;53.296;6.614;2023-12-28T05:43:09;11.32;;;2.03;;
52642;SDS011;38531;53.296;6.614;2023-12-28T05:45:35;15.45;;;2.17;;
52642;SDS011;38531;53.296;6.614;2023-12-28T05:48:01;18.08;;;2.67;;
52642;SDS011;38531;53.296;6.614;2023-12-28T05:50:27;17.15;;;2.60;;
52642;SDS011;38531;53.296;6.614;2023-12-28T05:52:53;17.13;;;2.30;;
52642;SDS011;38531;53.296;6.614;2023-12-28T05:55:18;13.85;;;1.85;;
52642;SDS011;38531;53.296;6.614;2023-12-28T05:57:44;15.77;;;2.38;;
52642;SDS011;38531;53.296;6.614;2023-12-28T06:00:10;13.98;;;2.42;;
52642;SDS011;38531;53.296;6.614;2023-12-28T06:02:36;12.00;;;1.90;;
52642;SDS011;38531;53.296;6.614;2023-12-28T06:05:01;14.75;;;2.58;;
52642;SDS011;38531;53.296;6.614;2023-12-28T06:07:27;17.38;;;2.72;;
52642;SDS011;38531;53.296;6.614;2023-12-28T06:09:53;15.68;;;2.10;;
52642;SDS011;38531;53.296;6.614;2023-12-28T06:12:18;14.90;;;1.95;;
52642;SDS011;38531;53.296;6.614;2023-12-28T06:14:44;17.42;;;2.83;;
52642;SDS011;38531;53.296;6.614;2023-12-28T06:17:10;17.92;;;2.28;;
52642;SDS011;38531;53.296;6.614;2023-12-28T06:19:35;15.32;;;1.80;;
52642;SDS011;38531;53.296;6.614;2023-12-28T06:22:01;16.67;;;2.50;;
52642;SDS011;38531;53.296;6.614;2023-12-28T06:24:27;19.65;;;2.67;;
52642;SDS011;38531;53.296;6.614;2023-12-28T06:26:52;15.57;;;2.17;;
52642;SDS011;38531;53.296;6.614;2023-12-28T06:29:18;23.35;;;2.83;;
52642;SDS011;38531;53.296;6.614;2023-12-28T06:31:44;17.63;;;2.03;;
52642;SDS011;38531;53.296;6.614;2023-12-28T06:34:09;17.35;;;2.55;;
52642;SDS011;38531;53.296;6.614;2023-12-28T06:36:35;11.95;;;2.53;;
52642;SDS011;38531;53.296;6.614;2023-12-28T06:39:01;15.40;;;2.47;;
52642;SDS011;38531;53.296;6.614;2023-12-28T06:41:26;15.02;;;2.75;;
52642;SDS011;38531;53.296;6.614;2023-12-28T06:43:52;14.95;;;2.25;;
52642;SDS011;38531;53.296;6.614;2023-12-28T06:46:18;17.70;;;1.92;;
52642;SDS011;38531;53.296;6.614;2023-12-28T06:48:44;20.33;;;2.45;;
52642;SDS011;38531;53.296;6.614;2023-12-28T06:51:15;19.90;;;2.60;;
52642;SDS011;38531;53.296;6.614;2023-12-28T06:53:43;20.33;;;2.58;;
52642;SDS011;38531;53.296;6.614;2023-12-28T06:56:09;19.30;;;2.78;;
52642;SDS011;38531;53.296;6.614;2023-12-28T06:58:34;18.42;;;2.55;;
52642;SDS011;38531;53.296;6.614;2023-12-28T07:01:02;17.77;;;2.67;;
52642;SDS011;38531;53.296;6.614;2023-12-28T07:03:29;18.80;;;2.58;;
52642;SDS011;38531;53.296;6.614;2023-12-28T07:05:58;18.05;;;2.72;;
52642;SDS011;38531;53.296;6.614;2023-12-28T07:08:24;15.80;;;2.10;;
52642;SDS011;38531;53.296;6.614;2023-12-28T07:10:50;16.80;;;2.45;;
52642;SDS011;38531;53.296;6.614;2023-12-28T07:13:15;18.67;;;2.83;;
52642;SDS011;38531;53.296;6.614;2023-12-28T07:15:41;17.83;;;2.58;;
52642;SDS011;38531;53.296;6.614;2023-12-28T07:18:07;26.13;;;2.22;;
52642;SDS011;38531;53.296;6.614;2023-12-28T07:20:32;16.15;;;2.83;;
52642;SDS011;38531;53.296;6.614;2023-12-28T07:22:58;17.42;;;2.70;;
52642;SDS011;38531;53.296;6.614;2023-12-28T07:25:24;22.10;;;2.85;;
52642;SDS011;38531;53.296;6.614;2023-12-28T07:27:49;28.67;;;3.28;;
52642;SDS011;38531;53.296;6.614;2023-12-28T07:30:15;19.48;;;3.13;;
52642;SDS011;38531;53.296;6.614;2023-12-28T07:32:42;18.85;;;2.53;;
52642;SDS011;38531;53.296;6.614;2023-12-28T07:35:08;22.80;;;3.35;;
52642;SDS011;38531;53.296;6.614;2023-12-28T07:37:34;24.33;;;3.17;;
52642;SDS011;38531;53.296;6.614;2023-12-28T07:40:00;19.25;;;3.05;;
52642;SDS011;38531;53.296;6.614;2023-12-28T07:42:27;13.50;;;2.35;;
52642;SDS011;38531;53.296;6.614;2023-12-28T07:44:52;23.20;;;2.92;;
52642;SDS011;38531;53.296;6.614;2023-12-28T07:47:18;23.15;;;3.00;;
52642;SDS011;38531;53.296;6.614;2023-12-28T07:49:44;20.67;;;3.30;;
52642;SDS011;38531;53.296;6.614;2023-12-28T07:52:09;25.65;;;3.13;;
52642;SDS011;38531;53.296;6.614;2023-12-28T07:54:35;22.98;;;3.67;;
52642;SDS011;38531;53.296;6.614;2023-12-28T07:57:01;22.35;;;3.67;;
52642;SDS011;38531;53.296;6.614;2023-12-28T07:59:26;26.58;;;3.40;;
52642;SDS011;38531;53.296;6.614;2023-12-28T08:01:52;27.50;;;3.90;;
52642;SDS011;38531;53.296;6.614;2023-12-28T08:04:18;27.45;;;3.47;;
52642;SDS011;38531;53.296;6.614;2023-12-28T08:06:44;35.67;;;4.68;;
52642;SDS011;38531;53.296;6.614;2023-12-28T08:09:09;29.63;;;4.32;;
52642;SDS011;38531;53.296;6.614;2023-12-28T08:11:35;24.30;;;3.75;;
52642;SDS011;38531;53.296;6.614;2023-12-28T08:14:01;24.92;;;3.70;;
52642;SDS011;38531;53.296;6.614;2023-12-28T08:16:26;22.77;;;3.00;;
52642;SDS011;38531;53.296;6.614;2023-12-28T08:18:52;22.45;;;3.95;;
52642;SDS011;38531;53.296;6.614;2023-12-28T08:21:18;22.95;;;3.47;;
52642;SDS011;38531;53.296;6.614;2023-12-28T08:23:44;20.95;;;3.35;;
52642;SDS011;38531;53.296;6.614;2023-12-28T08:26:09;26.70;;;4.20;;
52642;SDS011;38531;53.296;6.614;2023-12-28T08:28:35;26.73;;;3.92;;
52642;SDS011;38531;53.296;6.614;2023-12-28T08:31:02;22.70;;;3.75;;
52642;SDS011;38531;53.296;6.614;2023-12-28T08:33:27;26.42;;;3.83;;
52642;SDS011;38531;53.296;6.614;2023-12-28T08:35:53;33.30;;;4.55;;
52642;SDS011;38531;53.296;6.614;2023-12-28T08:38:19;23.75;;;3.53;;
52642;SDS011;38531;53.296;6.614;2023-12-28T08:40:45;29.05;;;4.00;;
52642;SDS011;38531;53.296;6.614;2023-12-28T08:43:11;26.85;;;3.72;;
52642;SDS011;38531;53.296;6.614;2023-12-28T08:45:36;20.20;;;4.25;;
52642;SDS011;38531;53.296;6.614;2023-12-28T08:48:02;32.47;;;4.65;;
52642;SDS011;38531;53.296;6.614;2023-12-28T08:50:31;29.13;;;4.18;;
52642;SDS011;38531;53.296;6.614;2023-12-28T08:52:57;24.77;;;3.92;;
52642;SDS011;38531;53.296;6.614;2023-12-28T08:55:23;34.72;;;4.75;;
52642;SDS011;38531;53.296;6.614;2023-12-28T08:57:48;25.67;;;4.40;;
52642;SDS011;38531;53.296;6.614;2023-12-28T09:00:14;34.38;;;5.45;;
52642;SDS011;38531;53.296;6.614;2023-12-28T09:02:41;29.75;;;4.50;;
52642;SDS011;38531;53.296;6.614;2023-12-28T09:05:08;23.27;;;4.30;;
52642;SDS011;38531;53.296;6.614;2023-12-28T09:07:38;34.97;;;4.97;;
52642;SDS011;38531;53.296;6.614;2023-12-28T09:10:09;27.55;;;4.28;;
52642;SDS011;38531;53.296;6.614;2023-12-28T09:12:35;33.63;;;4.30;;
52642;SDS011;38531;53.296;6.614;2023-12-28T09:15:01;29.65;;;4.40;;
52642;SDS011;38531;53.296;6.614;2023-12-28T09:17:27;30.05;;;4.45;;
52642;SDS011;38531;53.296;6.614;2023-12-28T09:19:53;26.75;;;4.63;;
52642;SDS011;38531;53.296;6.614;2023-12-28T09:22:19;33.88;;;4.97;;
52642;SDS011;38531;53.296;6.614;2023-12-28T09:24:44;35.85;;;4.70;;
52642;SDS011;38531;53.296;6.614;2023-12-28T09:27:10;29.60;;;3.72;;
52642;SDS011;38531;53.296;6.614;2023-12-28T09:29:36;35.58;;;4.72;;
52642;SDS011;38531;53.296;6.614;2023-12-28T09:32:02;30.10;;;4.50;;
52642;SDS011;38531;53.296;6.614;2023-12-28T09:34:27;23.15;;;3.97;;
52642;SDS011;38531;53.296;6.614;2023-12-28T09:36:53;27.40;;;4.32;;
52642;SDS011;38531;53.296;6.614;2023-12-28T09:39:19;21.67;;;4.22;;
52642;SDS011;38531;53.296;6.614;2023-12-28T09:41:46;30.10;;;4.22;;
52642;SDS011;38531;53.296;6.614;2023-12-28T09:44:14;24.48;;;4.63;;
52642;SDS011;38531;53.296;6.614;2023-12-28T09:46:43;29.30;;;4.70;;
52642;SDS011;38531;53.296;6.614;2023-12-28T09:49:10;22.45;;;4.53;;
52642;SDS011;38531;53.296;6.614;2023-12-28T09:51:36;27.80;;;4.13;;
52642;SDS011;38531;53.296;6.614;2023-12-28T09:54:05;29.00;;;4.53;;
52642;SDS011;38531;53.296;6.614;2023-12-28T09:56:31;20.02;;;3.90;;
52642;SDS011;38531;53.296;6.614;2023-12-28T09:58:58;28.08;;;3.13;;
52642;SDS011;38531;53.296;6.614;2023-12-28T10:01:24;25.08;;;3.97;;
52642;SDS011;38531;53.296;6.614;2023-12-28T10:03:50;30.33;;;4.47;;
52642;SDS011;38531;53.296;6.614;2023-12-28T10:06:16;25.42;;;3.63;;
52642;SDS011;38531;53.296;6.614;2023-12-28T10:08:48;36.05;;;5.93;;
52642;SDS011;38531;53.296;6.614;2023-12-28T10:11:15;28.20;;;5.22;;
52642;SDS011;38531;53.296;6.614;2023-12-28T10:13:42;22.90;;;4.20;;
52642;SDS011;38531;53.296;6.614;2023-12-28T10:16:12;28.40;;;4.95;;
52642;SDS011;38531;53.296;6.614;2023-12-28T10:18:40;26.83;;;3.72;;
52642;SDS011;38531;53.296;6.614;2023-12-28T10:21:09;33.28;;;4.65;;
52642;SDS011;38531;53.296;6.614;2023-12-28T10:23:35;25.80;;;3.90;;
52642;SDS011;38531;53.296;6.614;2023-12-28T10:26:01;28.35;;;4.28;;
52642;SDS011;38531;53.296;6.614;2023-12-28T10:28:31;26.60;;;3.78;;
52642;SDS011;38531;53.296;6.614;2023-12-28T10:30:58;21.70;;;4.32;;
52642;SDS011;38531;53.296;6.614;2023-12-28T10:33:24;17.23;;;3.25;;
52642;SDS011;38531;53.296;6.614;2023-12-28T10:35:50;33.22;;;5.32;;
52642;SDS011;38531;53.296;6.614;2023-12-28T10:38:17;28.05;;;4.10;;
52642;SDS011;38531;53.296;6.614;2023-12-28T10:40:45;23.33;;;3.55;;
52642;SDS011;38531;53.296;6.614;2023-12-28T10:43:13;20.90;;;4.70;;
52642;SDS011;38531;53.296;6.614;2023-12-28T10:45:41;18.52;;;4.32;;
52642;SDS011;38531;53.296;6.614;2023-12-28T10:48:12;29.65;;;3.95;;
52642;SDS011;38531;53.296;6.614;2023-12-28T10:50:42;27.52;;;4.18;;
52642;SDS011;38531;53.296;6.614;2023-12-28T10:56:02;25.45;;;3.45;;
52642;SDS011;38531;53.296;6.614;2023-12-28T11:01:39;26.52;;;3.22;;
52642;SDS011;38531;53.296;6.614;2023-12-28T11:04:07;18.75;;;3.83;;
52642;SDS011;38531;53.296;6.614;2023-12-28T11:06:42;21.25;;;3.40;;
52642;SDS011;38531;53.296;6.614;2023-12-28T11:09:09;21.23;;;3.72;;
52642;SDS011;38531;53.296;6.614;2023-12-28T11:11:37;26.05;;;3.95;;
52642;SDS011;38531;53.296;6.614;2023-12-28T11:14:03;25.98;;;3.75;;
52642;SDS011;38531;53.296;6.614;2023-12-28T11:16:29;30.17;;;3.90;;
52642;SDS011;38531;53.296;6.614;2023-12-28T11:18:57;29.73;;;4.30;;
52642;SDS011;38531;53.296;6.614;2023-12-28T11:21:24;28.25;;;4.22;;
52642;SDS011;38531;53.296;6.614;2023-12-28T11:23:50;26.17;;;3.85;;
52642;SDS011;38531;53.296;6.614;2023-12-28T11:26:16;25.85;;;4.03;;
52642;SDS011;38531;53.296;6.614;2023-12-28T11:28:43;25.23;;;4.22;;
52642;SDS011;38531;53.296;6.614;2023-12-28T11:31:09;21.90;;;3.55;;
52642;SDS011;38531;53.296;6.614;2023-12-28T11:33:45;30.38;;;4.18;;
52642;SDS011;38531;53.296;6.614;2023-12-28T11:36:17;22.92;;;3.75;;
52642;SDS011;38531;53.296;6.614;2023-12-28T11:38:52;23.15;;;3.42;;
52642;SDS011;38531;53.296;6.614;2023-12-28T11:41:24;32.33;;;4.10;;
52642;SDS011;38531;53.296;6.614;2023-12-28T11:43:53;28.25;;;3.30;;
52642;SDS011;38531;53.296;6.614;2023-12-28T11:46:22;29.15;;;4.32;;
52642;SDS011;38531;53.296;6.614;2023-12-28T11:48:48;25.58;;;3.83;;
52642;SDS011;38531;53.296;6.614;2023-12-28T11:51:14;31.25;;;3.63;;
52642;SDS011;38531;53.296;6.614;2023-12-28T11:53:40;17.40;;;3.35;;
52642;SDS011;38531;53.296;6.614;2023-12-28T11:56:07;25.95;;;3.47;;
52642;SDS011;38531;53.296;6.614;2023-12-28T11:58:35;17.85;;;3.22;;
52642;SDS011;38531;53.296;6.614;2023-12-28T12:01:03;23.42;;;3.42;;
52642;SDS011;38531;53.296;6.614;2023-12-28T12:03:29;22.85;;;3.70;;
52642;SDS011;38531;53.296;6.614;2023-12-28T12:05:55;27.70;;;4.80;;
52642;SDS011;38531;53.296;6.614;2023-12-28T12:08:22;20.10;;;3.50;;
52642;SDS011;38531;53.296;6.614;2023-12-28T12:10:48;25.15;;;3.65;;
52642;SDS011;38531;53.296;6.614;2023-12-28T12:13:24;22.90;;;3.22;;
52642;SDS011;38531;53.296;6.614;2023-12-28T12:15:50;26.60;;;3.53;;
52642;SDS011;38531;53.296;6.614;2023-12-28T12:18:16;21.77;;;3.33;;
52642;SDS011;38531;53.296;6.614;2023-12-28T12:20:42;17.83;;;2.95;;
52642;SDS011;38531;53.296;6.614;2023-12-28T12:23:08;16.70;;;3.85;;
52642;SDS011;38531;53.296;6.614;2023-12-28T12:25:34;23.60;;;3.47;;
52642;SDS011;38531;53.296;6.614;2023-12-28T12:28:00;27.48;;;3.50;;
52642;SDS011;38531;53.296;6.614;2023-12-28T12:30:25;28.63;;;4.20;;
52642;SDS011;38531;53.296;6.614;2023-12-28T12:32:51;24.50;;;3.45;;
52642;SDS011;38531;53.296;6.614;2023-12-28T12:35:17;25.70;;;4.70;;
52642;SDS011;38531;53.296;6.614;2023-12-28T12:37:46;27.60;;;4.20;;
52642;SDS011;38531;53.296;6.614;2023-12-28T12:40:14;29.08;;;3.83;;
52642;SDS011;38531;53.296;6.614;2023-12-28T12:42:41;33.88;;;4.00;;
52642;SDS011;38531;53.296;6.614;2023-12-28T12:45:07;26.58;;;4.20;;
52642;SDS011;38531;53.296;6.614;2023-12-28T12:47:34;29.00;;;4.30;;
52642;SDS011;38531;53.296;6.614;2023-12-28T12:49:59;31.13;;;4.15;;
52642;SDS011;38531;53.296;6.614;2023-12-28T12:52:26;23.92;;;3.85;;
52642;SDS011;38531;53.296;6.614;2023-12-28T12:54:56;18.80;;;3.92;;
52642;SDS011;38531;53.296;6.614;2023-12-28T12:57:22;30.75;;;3.92;;
52642;SDS011;38531;53.296;6.614;2023-12-28T12:59:50;19.77;;;3.85;;
52642;SDS011;38531;53.296;6.614;2023-12-28T13:02:16;24.52;;;3.50;;
52642;SDS011;38531;53.296;6.614;2023-12-28T13:04:42;27.75;;;4.13;;
52642;SDS011;38531;53.296;6.614;2023-12-28T13:07:08;29.70;;;3.85;;
52642;SDS011;38531;53.296;6.614;2023-12-28T13:09:34;20.25;;;3.72;;
52642;SDS011;38531;53.296;6.614;2023-12-28T13:12:00;26.33;;;4.25;;
52642;SDS011;38531;53.296;6.614;2023-12-28T13:14:27;29.75;;;3.75;;
52642;SDS011;38531;53.296;6.614;2023-12-28T13:16:52;27.42;;;3.70;;
52642;SDS011;38531;53.296;6.614;2023-12-28T13:19:20;23.38;;;3.65;;
52642;SDS011;38531;53.296;6.614;2023-12-28T13:21:45;27.63;;;3.67;;
52642;SDS011;38531;53.296;6.614;2023-12-28T13:24:11;28.80;;;4.25;;
52642;SDS011;38531;53.296;6.614;2023-12-28T13:26:37;28.88;;;4.00;;
52642;SDS011;38531;53.296;6.614;2023-12-28T13:29:03;30.30;;;4.35;;
52642;SDS011;38531;53.296;6.614;2023-12-28T13:31:28;18.45;;;3.05;;
52642;SDS011;38531;53.296;6.614;2023-12-28T13:33:54;27.48;;;3.72;;
52642;SDS011;38531;53.296;6.614;2023-12-28T13:36:20;27.10;;;4.05;;
52642;SDS011;38531;53.296;6.614;2023-12-28T13:38:46;21.50;;;3.97;;
52642;SDS011;38531;53.296;6.614;2023-12-28T13:41:13;18.48;;;2.88;;
52642;SDS011;38531;53.296;6.614;2023-12-28T13:43:38;19.35;;;3.67;;
52642;SDS011;38531;53.296;6.614;2023-12-28T13:46:04;21.42;;;3.75;;
52642;SDS011;38531;53.296;6.614;2023-12-28T13:48:30;19.92;;;3.33;;
52642;SDS011;38531;53.296;6.614;2023-12-28T13:50:56;25.10;;;3.42;;
52642;SDS011;38531;53.296;6.614;2023-12-28T13:53:22;24.58;;;3.83;;
52642;SDS011;38531;53.296;6.614;2023-12-28T13:55:47;25.67;;;4.10;;
52642;SDS011;38531;53.296;6.614;2023-12-28T13:58:13;20.88;;;3.30;;
52642;SDS011;38531;53.296;6.614;2023-12-28T14:00:42;26.63;;;4.20;;
52642;SDS011;38531;53.296;6.614;2023-12-28T14:03:07;20.30;;;3.70;;
52642;SDS011;38531;53.296;6.614;2023-12-28T14:05:33;23.50;;;3.45;;
52642;SDS011;38531;53.296;6.614;2023-12-28T14:07:59;22.63;;;3.28;;
52642;SDS011;38531;53.296;6.614;2023-12-28T14:10:24;28.73;;;3.70;;
52642;SDS011;38531;53.296;6.614;2023-12-28T14:12:50;21.30;;;3.47;;
52642;SDS011;38531;53.296;6.614;2023-12-28T14:15:16;30.85;;;3.65;;
52642;SDS011;38531;53.296;6.614;2023-12-28T14:17:41;20.50;;;4.10;;
52642;SDS011;38531;53.296;6.614;2023-12-28T14:20:07;33.95;;;3.42;;
52642;SDS011;38531;53.296;6.614;2023-12-28T14:22:36;21.80;;;3.75;;
52642;SDS011;38531;53.296;6.614;2023-12-28T14:25:03;25.38;;;3.17;;
52642;SDS011;38531;53.296;6.614;2023-12-28T14:27:30;21.38;;;3.42;;
52642;SDS011;38531;53.296;6.614;2023-12-28T14:29:56;23.65;;;4.05;;
52642;SDS011;38531;53.296;6.614;2023-12-28T14:32:22;19.92;;;3.72;;
52642;SDS011;38531;53.296;6.614;2023-12-28T14:34:48;24.25;;;4.20;;
52642;SDS011;38531;53.296;6.614;2023-12-28T14:37:14;24.35;;;3.20;;